Terminal Aerodrome Forecast
Issued by NWS Portland, OR

Home | Current Version | Previous Version | Text Only | Print | Product List | Glossary On
Versions: 1 2 3 4 5 6 7 8 9 10 11 12 13 14 15 16 17 18 19 20
000
FTUS46 KPQR 210719 AAA
TAFSLE
TAF AMD
KSLE 210719Z 2107/2206 16003KT P6SM -RA SCT006 BKN015 OVC025
     FM211000 16004KT 3SM -RADZ BR BKN008 OVC020
     FM212000 17005KT 6SM -RA BR SCT022 OVC040
     FM220300 18007KT P6SM -RA SCT022 OVC040=

USA.gov is the U.S. government's official web portal to all federal, state and local government web resources and services.